sensor_id;sensor_type;location;lat;lon;timestamp;P1;durP1;ratioP1;P2;durP2;ratioP2
35644;SDS011;21764;52.042;6.830;2023-07-29T00:04:52;11.77;;;7.80;;
35644;SDS011;21764;52.042;6.830;2023-07-29T00:09:53;11.48;;;8.55;;
35644;SDS011;21764;52.042;6.830;2023-07-29T00:14:54;15.85;;;9.20;;
35644;SDS011;21764;52.042;6.830;2023-07-29T00:19:55;11.18;;;8.82;;
35644;SDS011;21764;52.042;6.830;2023-07-29T00:24:55;15.07;;;10.10;;
35644;SDS011;21764;52.042;6.830;2023-07-29T00:29:57;14.55;;;10.70;;
35644;SDS011;21764;52.042;6.830;2023-07-29T00:34:58;19.45;;;10.60;;
35644;SDS011;21764;52.042;6.830;2023-07-29T00:40:00;15.63;;;10.18;;
35644;SDS011;21764;52.042;6.830;2023-07-29T00:45:01;16.52;;;9.32;;
35644;SDS011;21764;52.042;6.830;2023-07-29T00:50:02;12.65;;;7.70;;
35644;SDS011;21764;52.042;6.830;2023-07-29T00:55:04;15.27;;;7.30;;
35644;SDS011;21764;52.042;6.830;2023-07-29T01:00:05;10.23;;;7.18;;
35644;SDS011;21764;52.042;6.830;2023-07-29T01:05:06;10.68;;;7.32;;
35644;SDS011;21764;52.042;6.830;2023-07-29T01:10:10;10.10;;;7.00;;
35644;SDS011;21764;52.042;6.830;2023-07-29T01:15:53;14.15;;;7.22;;
35644;SDS011;21764;52.042;6.830;2023-07-29T01:21:04;12.73;;;7.40;;
35644;SDS011;21764;52.042;6.830;2023-07-29T01:26:08;10.73;;;7.32;;
35644;SDS011;21764;52.042;6.830;2023-07-29T01:31:10;9.93;;;6.95;;
35644;SDS011;21764;52.042;6.830;2023-07-29T01:36:18;8.32;;;6.47;;
35644;SDS011;21764;52.042;6.830;2023-07-29T01:41:24;9.45;;;6.40;;
35644;SDS011;21764;52.042;6.830;2023-07-29T01:46:26;7.00;;;6.25;;
35644;SDS011;21764;52.042;6.830;2023-07-29T01:51:27;6.95;;;6.25;;
35644;SDS011;21764;52.042;6.830;2023-07-29T01:56:28;9.90;;;6.55;;
35644;SDS011;21764;52.042;6.830;2023-07-29T02:01:28;8.95;;;6.80;;
35644;SDS011;21764;52.042;6.830;2023-07-29T02:06:29;10.52;;;7.05;;
35644;SDS011;21764;52.042;6.830;2023-07-29T02:11:30;8.68;;;6.45;;
35644;SDS011;21764;52.042;6.830;2023-07-29T02:16:31;7.93;;;7.13;;
35644;SDS011;21764;52.042;6.830;2023-07-29T02:21:33;10.73;;;7.07;;
35644;SDS011;21764;52.042;6.830;2023-07-29T02:26:33;13.68;;;6.90;;
35644;SDS011;21764;52.042;6.830;2023-07-29T02:31:34;11.63;;;7.15;;
35644;SDS011;21764;52.042;6.830;2023-07-29T02:36:36;13.48;;;7.30;;
35644;SDS011;21764;52.042;6.830;2023-07-29T02:41:37;10.52;;;7.40;;
35644;SDS011;21764;52.042;6.830;2023-07-29T02:46:38;11.93;;;7.50;;
35644;SDS011;21764;52.042;6.830;2023-07-29T02:51:38;15.82;;;7.55;;
35644;SDS011;21764;52.042;6.830;2023-07-29T02:56:39;9.35;;;7.60;;
35644;SDS011;21764;52.042;6.830;2023-07-29T03:01:40;11.30;;;7.78;;
35644;SDS011;21764;52.042;6.830;2023-07-29T03:06:40;9.63;;;7.65;;
35644;SDS011;21764;52.042;6.830;2023-07-29T03:11:42;11.50;;;7.50;;
35644;SDS011;21764;52.042;6.830;2023-07-29T03:16:43;10.23;;;7.47;;
35644;SDS011;21764;52.042;6.830;2023-07-29T03:21:44;12.95;;;8.23;;
35644;SDS011;21764;52.042;6.830;2023-07-29T03:26:45;14.88;;;8.07;;
35644;SDS011;21764;52.042;6.830;2023-07-29T03:31:46;10.48;;;8.00;;
35644;SDS011;21764;52.042;6.830;2023-07-29T03:36:47;14.02;;;7.80;;
35644;SDS011;21764;52.042;6.830;2023-07-29T03:41:51;13.80;;;9.10;;
35644;SDS011;21764;52.042;6.830;2023-07-29T03:46:52;11.90;;;9.05;;
35644;SDS011;21764;52.042;6.830;2023-07-29T03:51:53;13.20;;;9.43;;
35644;SDS011;21764;52.042;6.830;2023-07-29T03:56:53;12.07;;;9.43;;
35644;SDS011;21764;52.042;6.830;2023-07-29T04:01:54;12.20;;;10.25;;
35644;SDS011;21764;52.042;6.830;2023-07-29T04:06:54;14.73;;;10.48;;
35644;SDS011;21764;52.042;6.830;2023-07-29T04:11:55;13.45;;;11.43;;
35644;SDS011;21764;52.042;6.830;2023-07-29T04:16:56;16.67;;;10.93;;
35644;SDS011;21764;52.042;6.830;2023-07-29T04:21:56;17.38;;;11.63;;
35644;SDS011;21764;52.042;6.830;2023-07-29T04:26:57;15.80;;;11.70;;
35644;SDS011;21764;52.042;6.830;2023-07-29T04:31:58;18.98;;;12.63;;
35644;SDS011;21764;52.042;6.830;2023-07-29T04:36:58;19.92;;;15.23;;
35644;SDS011;21764;52.042;6.830;2023-07-29T04:41:59;18.70;;;14.63;;
35644;SDS011;21764;52.042;6.830;2023-07-29T04:47:00;17.08;;;14.23;;
35644;SDS011;21764;52.042;6.830;2023-07-29T04:52:01;18.17;;;14.38;;
35644;SDS011;21764;52.042;6.830;2023-07-29T04:57:02;18.90;;;15.77;;
35644;SDS011;21764;52.042;6.830;2023-07-29T05:02:03;24.60;;;15.30;;
35644;SDS011;21764;52.042;6.830;2023-07-29T05:07:03;19.70;;;15.70;;
35644;SDS011;21764;52.042;6.830;2023-07-29T05:12:04;20.77;;;15.15;;
35644;SDS011;21764;52.042;6.830;2023-07-29T05:17:06;17.52;;;13.55;;
35644;SDS011;21764;52.042;6.830;2023-07-29T05:22:06;19.10;;;13.65;;
35644;SDS011;21764;52.042;6.830;2023-07-29T05:27:07;14.45;;;11.15;;
35644;SDS011;21764;52.042;6.830;2023-07-29T05:32:08;11.10;;;9.75;;
35644;SDS011;21764;52.042;6.830;2023-07-29T05:37:09;13.80;;;9.07;;
35644;SDS011;21764;52.042;6.830;2023-07-29T05:42:10;13.20;;;8.45;;
35644;SDS011;21764;52.042;6.830;2023-07-29T05:47:10;11.52;;;8.40;;
35644;SDS011;21764;52.042;6.830;2023-07-29T05:52:11;9.45;;;8.02;;
35644;SDS011;21764;52.042;6.830;2023-07-29T05:57:12;13.05;;;7.15;;
35644;SDS011;21764;52.042;6.830;2023-07-29T06:02:13;7.50;;;5.95;;
35644;SDS011;21764;52.042;6.830;2023-07-29T06:07:14;8.40;;;5.35;;
35644;SDS011;21764;52.042;6.830;2023-07-29T06:12:14;6.13;;;4.88;;
35644;SDS011;21764;52.042;6.830;2023-07-29T06:17:15;5.50;;;5.00;;
35644;SDS011;21764;52.042;6.830;2023-07-29T06:22:17;6.82;;;5.55;;
35644;SDS011;21764;52.042;6.830;2023-07-29T06:27:17;6.18;;;5.07;;
35644;SDS011;21764;52.042;6.830;2023-07-29T06:32:18;5.60;;;4.45;;
35644;SDS011;21764;52.042;6.830;2023-07-29T06:37:18;5.43;;;4.60;;
35644;SDS011;21764;52.042;6.830;2023-07-29T06:42:19;8.90;;;5.72;;
35644;SDS011;21764;52.042;6.830;2023-07-29T06:47:20;9.18;;;4.97;;
35644;SDS011;21764;52.042;6.830;2023-07-29T06:52:20;9.65;;;5.28;;
35644;SDS011;21764;52.042;6.830;2023-07-29T06:57:21;7.07;;;5.60;;
35644;SDS011;21764;52.042;6.830;2023-07-29T07:02:23;8.35;;;6.10;;
35644;SDS011;21764;52.042;6.830;2023-07-29T07:07:23;8.35;;;5.90;;
35644;SDS011;21764;52.042;6.830;2023-07-29T07:12:24;8.73;;;6.25;;
35644;SDS011;21764;52.042;6.830;2023-07-29T07:17:25;9.73;;;6.38;;
35644;SDS011;21764;52.042;6.830;2023-07-29T07:22:29;10.68;;;6.53;;
35644;SDS011;21764;52.042;6.830;2023-07-29T07:27:29;9.37;;;6.83;;
35644;SDS011;21764;52.042;6.830;2023-07-29T07:32:30;7.28;;;5.88;;
35644;SDS011;21764;52.042;6.830;2023-07-29T07:37:30;10.07;;;7.65;;
35644;SDS011;21764;52.042;6.830;2023-07-29T07:42:34;9.60;;;7.30;;
35644;SDS011;21764;52.042;6.830;2023-07-29T07:47:34;10.00;;;6.72;;
35644;SDS011;21764;52.042;6.830;2023-07-29T07:57:40;8.35;;;5.40;;
35644;SDS011;21764;52.042;6.830;2023-07-29T08:02:40;6.53;;;4.57;;
35644;SDS011;21764;52.042;6.830;2023-07-29T08:07:41;14.20;;;7.55;;
35644;SDS011;21764;52.042;6.830;2023-07-29T08:12:42;8.95;;;7.97;;
35644;SDS011;21764;52.042;6.830;2023-07-29T08:17:42;15.52;;;14.25;;
35644;SDS011;21764;52.042;6.830;2023-07-29T08:22:45;4.50;;;3.30;;
35644;SDS011;21764;52.042;6.830;2023-07-29T08:27:46;9.05;;;3.40;;
35644;SDS011;21764;52.042;6.830;2023-07-29T08:32:47;4.05;;;3.25;;
35644;SDS011;21764;52.042;6.830;2023-07-29T08:37:48;7.88;;;3.42;;
35644;SDS011;21764;52.042;6.830;2023-07-29T08:42:48;7.97;;;3.35;;
35644;SDS011;21764;52.042;6.830;2023-07-29T08:47:51;4.55;;;3.45;;
35644;SDS011;21764;52.042;6.830;2023-07-29T08:52:58;5.50;;;3.00;;
35644;SDS011;21764;52.042;6.830;2023-07-29T08:58:00;3.58;;;3.28;;
35644;SDS011;21764;52.042;6.830;2023-07-29T09:03:05;4.22;;;2.95;;
35644;SDS011;21764;52.042;6.830;2023-07-29T09:08:07;4.78;;;2.80;;
35644;SDS011;21764;52.042;6.830;2023-07-29T09:13:08;3.78;;;2.20;;
35644;SDS011;21764;52.042;6.830;2023-07-29T09:18:09;4.60;;;2.30;;
35644;SDS011;21764;52.042;6.830;2023-07-29T09:23:20;4.85;;;2.45;;
35644;SDS011;21764;52.042;6.830;2023-07-29T09:28:20;7.78;;;2.42;;
35644;SDS011;21764;52.042;6.830;2023-07-29T09:33:21;3.90;;;2.50;;
35644;SDS011;21764;52.042;6.830;2023-07-29T09:38:28;3.35;;;3.05;;
35644;SDS011;21764;52.042;6.830;2023-07-29T09:43:30;2.47;;;2.28;;
35644;SDS011;21764;52.042;6.830;2023-07-29T09:48:34;4.47;;;2.53;;
35644;SDS011;21764;52.042;6.830;2023-07-29T09:53:46;4.25;;;2.22;;
35644;SDS011;21764;52.042;6.830;2023-07-29T09:58:48;3.30;;;2.58;;
35644;SDS011;21764;52.042;6.830;2023-07-29T10:03:49;3.38;;;2.55;;
35644;SDS011;21764;52.042;6.830;2023-07-29T10:08:51;4.55;;;2.10;;
35644;SDS011;21764;52.042;6.830;2023-07-29T10:13:52;2.97;;;2.50;;
35644;SDS011;21764;52.042;6.830;2023-07-29T10:18:53;4.75;;;3.15;;
35644;SDS011;21764;52.042;6.830;2023-07-29T10:23:58;4.72;;;2.95;;
35644;SDS011;21764;52.042;6.830;2023-07-29T10:29:04;8.25;;;7.47;;
35644;SDS011;21764;52.042;6.830;2023-07-29T10:34:10;3.85;;;3.10;;
35644;SDS011;21764;52.042;6.830;2023-07-29T10:39:12;2.65;;;2.45;;
35644;SDS011;21764;52.042;6.830;2023-07-29T10:49:57;6.18;;;1.98;;
35644;SDS011;21764;52.042;6.830;2023-07-29T10:54:59;4.43;;;1.60;;
35644;SDS011;21764;52.042;6.830;2023-07-29T11:00:01;3.70;;;1.65;;
35644;SDS011;21764;52.042;6.830;2023-07-29T11:05:07;3.38;;;2.30;;
35644;SDS011;21764;52.042;6.830;2023-07-29T11:10:16;6.35;;;2.40;;
35644;SDS011;21764;52.042;6.830;2023-07-29T11:20:31;3.92;;;2.10;;
35644;SDS011;21764;52.042;6.830;2023-07-29T11:25:33;2.97;;;1.92;;
35644;SDS011;21764;52.042;6.830;2023-07-29T11:30:34;2.63;;;1.80;;
35644;SDS011;21764;52.042;6.830;2023-07-29T11:35:34;2.55;;;1.65;;
35644;SDS011;21764;52.042;6.830;2023-07-29T11:40:35;2.90;;;2.00;;
35644;SDS011;21764;52.042;6.830;2023-07-29T11:45:36;2.63;;;1.80;;
35644;SDS011;21764;52.042;6.830;2023-07-29T11:50:37;5.15;;;2.70;;
35644;SDS011;21764;52.042;6.830;2023-07-29T11:55:38;3.75;;;2.20;;
35644;SDS011;21764;52.042;6.830;2023-07-29T12:00:39;4.13;;;2.60;;
35644;SDS011;21764;52.042;6.830;2023-07-29T12:05:40;4.68;;;2.35;;
35644;SDS011;21764;52.042;6.830;2023-07-29T12:10:41;2.45;;;1.98;;
35644;SDS011;21764;52.042;6.830;2023-07-29T12:15:42;3.25;;;2.20;;
35644;SDS011;21764;52.042;6.830;2023-07-29T12:20:43;3.00;;;1.80;;
35644;SDS011;21764;52.042;6.830;2023-07-29T12:25:43;4.82;;;2.20;;
35644;SDS011;21764;52.042;6.830;2023-07-29T12:30:45;2.55;;;1.80;;
35644;SDS011;21764;52.042;6.830;2023-07-29T12:35:45;4.25;;;2.00;;
35644;SDS011;21764;52.042;6.830;2023-07-29T12:40:46;3.55;;;2.15;;
35644;SDS011;21764;52.042;6.830;2023-07-29T12:45:50;2.13;;;1.50;;
35644;SDS011;21764;52.042;6.830;2023-07-29T12:50:50;2.05;;;1.77;;
35644;SDS011;21764;52.042;6.830;2023-07-29T12:55:54;4.35;;;1.88;;
35644;SDS011;21764;52.042;6.830;2023-07-29T13:00:54;4.55;;;2.08;;
35644;SDS011;21764;52.042;6.830;2023-07-29T13:05:55;2.63;;;2.05;;
35644;SDS011;21764;52.042;6.830;2023-07-29T13:10:56;4.50;;;2.10;;
35644;SDS011;21764;52.042;6.830;2023-07-29T13:15:57;4.10;;;2.22;;
35644;SDS011;21764;52.042;6.830;2023-07-29T13:20:57;10.88;;;2.97;;
35644;SDS011;21764;52.042;6.830;2023-07-29T13:26:00;4.78;;;2.50;;
35644;SDS011;21764;52.042;6.830;2023-07-29T13:31:01;7.10;;;2.88;;
35644;SDS011;21764;52.042;6.830;2023-07-29T13:36:03;4.45;;;2.78;;
35644;SDS011;21764;52.042;6.830;2023-07-29T13:41:04;6.13;;;2.90;;
35644;SDS011;21764;52.042;6.830;2023-07-29T13:46:04;3.65;;;2.60;;
35644;SDS011;21764;52.042;6.830;2023-07-29T13:51:05;5.28;;;2.05;;
35644;SDS011;21764;52.042;6.830;2023-07-29T13:56:06;4.97;;;1.88;;
35644;SDS011;21764;52.042;6.830;2023-07-29T14:01:06;5.22;;;2.28;;
35644;SDS011;21764;52.042;6.830;2023-07-29T14:06:07;4.93;;;2.20;;
35644;SDS011;21764;52.042;6.830;2023-07-29T14:11:08;19.48;;;2.10;;
35644;SDS011;21764;52.042;6.830;2023-07-29T14:16:08;2.85;;;1.60;;
35644;SDS011;21764;52.042;6.830;2023-07-29T14:21:09;1.27;;;1.17;;
35644;SDS011;21764;52.042;6.830;2023-07-29T14:26:10;2.08;;;1.30;;
35644;SDS011;21764;52.042;6.830;2023-07-29T14:31:10;2.40;;;1.50;;
35644;SDS011;21764;52.042;6.830;2023-07-29T14:36:11;3.67;;;1.80;;
35644;SDS011;21764;52.042;6.830;2023-07-29T14:41:12;2.92;;;1.50;;
35644;SDS011;21764;52.042;6.830;2023-07-29T14:46:13;2.35;;;1.88;;
35644;SDS011;21764;52.042;6.830;2023-07-29T14:51:14;6.35;;;4.45;;
35644;SDS011;21764;52.042;6.830;2023-07-29T14:56:15;4.22;;;2.75;;
35644;SDS011;21764;52.042;6.830;2023-07-29T15:01:17;1.75;;;1.63;;
35644;SDS011;21764;52.042;6.830;2023-07-29T15:06:18;2.90;;;1.65;;
35644;SDS011;21764;52.042;6.830;2023-07-29T15:11:19;2.85;;;1.50;;
35644;SDS011;21764;52.042;6.830;2023-07-29T15:16:22;2.70;;;1.27;;
35644;SDS011;21764;52.042;6.830;2023-07-29T15:26:25;6.53;;;1.58;;
35644;SDS011;21764;52.042;6.830;2023-07-29T15:31:25;4.80;;;1.50;;
35644;SDS011;21764;52.042;6.830;2023-07-29T15:36:26;1.85;;;1.40;;
35644;SDS011;21764;52.042;6.830;2023-07-29T15:41:27;7.55;;;2.13;;
35644;SDS011;21764;52.042;6.830;2023-07-29T15:46:28;1.73;;;1.55;;
35644;SDS011;21764;52.042;6.830;2023-07-29T15:51:28;6.68;;;2.22;;
35644;SDS011;21764;52.042;6.830;2023-07-29T15:56:29;4.35;;;2.58;;
35644;SDS011;21764;52.042;6.830;2023-07-29T16:01:30;2.20;;;1.48;;
35644;SDS011;21764;52.042;6.830;2023-07-29T16:06:31;3.22;;;1.63;;
35644;SDS011;21764;52.042;6.830;2023-07-29T16:11:32;3.38;;;2.00;;
35644;SDS011;21764;52.042;6.830;2023-07-29T16:16:33;1.85;;;1.60;;
35644;SDS011;21764;52.042;6.830;2023-07-29T16:21:34;1.60;;;1.40;;
35644;SDS011;21764;52.042;6.830;2023-07-29T16:26:35;4.03;;;1.80;;
35644;SDS011;21764;52.042;6.830;2023-07-29T16:31:35;2.58;;;1.60;;
35644;SDS011;21764;52.042;6.830;2023-07-29T16:36:36;6.13;;;1.80;;
35644;SDS011;21764;52.042;6.830;2023-07-29T16:41:37;3.22;;;1.80;;
35644;SDS011;21764;52.042;6.830;2023-07-29T16:46:38;5.47;;;1.85;;
35644;SDS011;21764;52.042;6.830;2023-07-29T16:51:38;5.47;;;2.75;;
35644;SDS011;21764;52.042;6.830;2023-07-29T16:56:39;5.68;;;1.70;;
35644;SDS011;21764;52.042;6.830;2023-07-29T17:01:40;2.13;;;1.52;;
35644;SDS011;21764;52.042;6.830;2023-07-29T17:06:41;2.08;;;1.88;;
35644;SDS011;21764;52.042;6.830;2023-07-29T17:11:41;4.55;;;2.33;;
35644;SDS011;21764;52.042;6.830;2023-07-29T17:16:42;2.88;;;1.73;;
35644;SDS011;21764;52.042;6.830;2023-07-29T17:21:43;2.78;;;1.90;;
35644;SDS011;21764;52.042;6.830;2023-07-29T17:26:43;2.63;;;2.00;;
35644;SDS011;21764;52.042;6.830;2023-07-29T17:31:47;5.15;;;2.20;;
35644;SDS011;21764;52.042;6.830;2023-07-29T17:36:48;4.63;;;2.28;;
35644;SDS011;21764;52.042;6.830;2023-07-29T17:41:49;6.57;;;2.30;;
35644;SDS011;21764;52.042;6.830;2023-07-29T17:46:49;8.38;;;4.20;;
35644;SDS011;21764;52.042;6.830;2023-07-29T17:51:50;4.70;;;3.17;;
35644;SDS011;21764;52.042;6.830;2023-07-29T17:56:50;4.93;;;3.03;;
35644;SDS011;21764;52.042;6.830;2023-07-29T18:01:51;3.42;;;2.42;;
35644;SDS011;21764;52.042;6.830;2023-07-29T18:06:52;5.40;;;2.92;;
35644;SDS011;21764;52.042;6.830;2023-07-29T18:11:52;4.07;;;2.83;;
35644;SDS011;21764;52.042;6.830;2023-07-29T18:16:53;3.92;;;2.30;;
35644;SDS011;21764;52.042;6.830;2023-07-29T18:21:54;2.97;;;2.53;;
35644;SDS011;21764;52.042;6.830;2023-07-29T18:26:54;2.90;;;2.60;;
35644;SDS011;21764;52.042;6.830;2023-07-29T18:31:55;4.43;;;2.22;;
35644;SDS011;21764;52.042;6.830;2023-07-29T18:36:56;4.63;;;2.45;;
35644;SDS011;21764;52.042;6.830;2023-07-29T18:41:56;3.38;;;2.40;;
35644;SDS011;21764;52.042;6.830;2023-07-29T18:46:57;3.03;;;2.33;;
35644;SDS011;21764;52.042;6.830;2023-07-29T18:51:58;8.30;;;2.55;;
35644;SDS011;21764;52.042;6.830;2023-07-29T18:56:58;5.30;;;2.40;;
35644;SDS011;21764;52.042;6.830;2023-07-29T19:02:01;7.82;;;2.80;;
35644;SDS011;21764;52.042;6.830;2023-07-29T19:07:01;4.63;;;2.70;;
35644;SDS011;21764;52.042;6.830;2023-07-29T19:12:02;2.40;;;2.13;;
35644;SDS011;21764;52.042;6.830;2023-07-29T19:17:03;5.10;;;2.47;;
35644;SDS011;21764;52.042;6.830;2023-07-29T19:22:04;4.40;;;2.45;;
35644;SDS011;21764;52.042;6.830;2023-07-29T19:27:05;4.78;;;2.40;;
35644;SDS011;21764;52.042;6.830;2023-07-29T19:32:06;4.28;;;2.90;;
35644;SDS011;21764;52.042;6.830;2023-07-29T19:37:07;7.20;;;2.83;;
35644;SDS011;21764;52.042;6.830;2023-07-29T19:42:09;4.35;;;2.40;;
35644;SDS011;21764;52.042;6.830;2023-07-29T19:47:09;5.35;;;2.72;;
35644;SDS011;21764;52.042;6.830;2023-07-29T19:52:12;5.85;;;3.13;;
35644;SDS011;21764;52.042;6.830;2023-07-29T19:57:12;7.55;;;3.05;;
35644;SDS011;21764;52.042;6.830;2023-07-29T20:02:13;3.15;;;2.85;;
35644;SDS011;21764;52.042;6.830;2023-07-29T20:07:13;3.28;;;2.80;;
35644;SDS011;21764;52.042;6.830;2023-07-29T20:12:14;4.35;;;2.50;;
35644;SDS011;21764;52.042;6.830;2023-07-29T20:17:15;3.88;;;2.67;;
35644;SDS011;21764;52.042;6.830;2023-07-29T20:22:15;5.07;;;3.00;;
35644;SDS011;21764;52.042;6.830;2023-07-29T20:27:16;4.55;;;2.95;;
35644;SDS011;21764;52.042;6.830;2023-07-29T20:32:17;6.63;;;3.85;;
35644;SDS011;21764;52.042;6.830;2023-07-29T20:37:17;4.05;;;3.65;;
35644;SDS011;21764;52.042;6.830;2023-07-29T20:42:18;12.07;;;4.30;;
35644;SDS011;21764;52.042;6.830;2023-07-29T20:47:19;12.07;;;4.35;;
35644;SDS011;21764;52.042;6.830;2023-07-29T20:52:19;11.68;;;4.10;;
35644;SDS011;21764;52.042;6.830;2023-07-29T20:57:20;6.40;;;4.00;;
35644;SDS011;21764;52.042;6.830;2023-07-29T21:02:21;17.65;;;4.70;;
35644;SDS011;21764;52.042;6.830;2023-07-29T21:07:21;17.38;;;4.68;;
35644;SDS011;21764;52.042;6.830;2023-07-29T21:12:23;11.50;;;4.28;;
35644;SDS011;21764;52.042;6.830;2023-07-29T21:17:24;16.60;;;4.93;;
35644;SDS011;21764;52.042;6.830;2023-07-29T21:22:24;10.82;;;4.85;;
35644;SDS011;21764;52.042;6.830;2023-07-29T21:27:25;14.88;;;6.18;;
35644;SDS011;21764;52.042;6.830;2023-07-29T21:32:26;12.38;;;5.82;;
35644;SDS011;21764;52.042;6.830;2023-07-29T21:37:26;12.60;;;5.88;;
35644;SDS011;21764;52.042;6.830;2023-07-29T21:42:27;22.20;;;6.25;;
35644;SDS011;21764;52.042;6.830;2023-07-29T21:47:28;14.77;;;6.00;;
35644;SDS011;21764;52.042;6.830;2023-07-29T21:52:28;12.95;;;5.97;;
35644;SDS011;21764;52.042;6.830;2023-07-29T21:57:29;10.88;;;5.57;;
35644;SDS011;21764;52.042;6.830;2023-07-29T22:02:30;16.55;;;6.57;;
35644;SDS011;21764;52.042;6.830;2023-07-29T22:07:31;14.27;;;6.25;;
35644;SDS011;21764;52.042;6.830;2023-07-29T22:12:32;17.88;;;5.95;;
35644;SDS011;21764;52.042;6.830;2023-07-29T22:17:33;15.40;;;6.40;;
35644;SDS011;21764;52.042;6.830;2023-07-29T22:22:33;12.80;;;6.43;;
35644;SDS011;21764;52.042;6.830;2023-07-29T22:27:34;11.30;;;5.97;;
35644;SDS011;21764;52.042;6.830;2023-07-29T22:32:34;17.92;;;7.78;;
35644;SDS011;21764;52.042;6.830;2023-07-29T22:37:35;18.85;;;7.60;;
35644;SDS011;21764;52.042;6.830;2023-07-29T22:42:36;14.60;;;6.72;;
35644;SDS011;21764;52.042;6.830;2023-07-29T22:47:36;13.55;;;6.40;;
35644;SDS011;21764;52.042;6.830;2023-07-29T22:52:37;11.95;;;7.20;;
35644;SDS011;21764;52.042;6.830;2023-07-29T22:57:37;22.75;;;7.07;;
35644;SDS011;21764;52.042;6.830;2023-07-29T23:02:38;16.38;;;6.60;;
35644;SDS011;21764;52.042;6.830;2023-07-29T23:07:39;19.65;;;7.43;;
35644;SDS011;21764;52.042;6.830;2023-07-29T23:12:39;16.48;;;7.40;;
35644;SDS011;21764;52.042;6.830;2023-07-29T23:17:41;13.93;;;6.25;;
35644;SDS011;21764;52.042;6.830;2023-07-29T23:22:42;20.88;;;7.43;;
35644;SDS011;21764;52.042;6.830;2023-07-29T23:27:42;19.85;;;6.70;;
35644;SDS011;21764;52.042;6.830;2023-07-29T23:32:43;21.13;;;6.60;;
35644;SDS011;21764;52.042;6.830;2023-07-29T23:37:44;12.02;;;5.75;;
35644;SDS011;21764;52.042;6.830;2023-07-29T23:42:45;26.33;;;6.93;;
35644;SDS011;21764;52.042;6.830;2023-07-29T23:47:45;17.95;;;6.38;;
35644;SDS011;21764;52.042;6.830;2023-07-29T23:52:46;15.73;;;5.95;;
35644;SDS011;21764;52.042;6.830;2023-07-29T23:57:47;17.65;;;6.55;;
